Time;durP1;ratioP1;P1;durP2;ratioP2;P2;SDS_P1;SDS_P2;PMS_P1;PMS_P2;Temp;Humidity;BMP_temperature;BMP_pressure;BME280_temperature;BME280_humidity;BME280_pressure;Samples;Min_cycle;Max_cycle;Signal;HPM_P1;HPM_P2
2022/11/03 00:03:21;;;;;;;9.50;6.83;;;11.60;99.90;;;;;;10419364;28;20214;-82
2022/11/03 00:08:23;;;;;;;12.60;7.40;;;11.60;99.90;;;;;;10405796;28;20575;-82
2022/11/03 00:13:26;;;;;;;11.03;7.20;;;11.60;99.90;;;;;;10440781;28;20218;-82
2022/11/03 00:18:30;;;;;;;9.93;6.23;;;11.60;99.90;;;;;;10407410;28;20213;-82
2022/11/03 00:23:34;;;;;;;6.90;6.30;;;11.60;99.90;;;;;;10416617;28;20232;-80
2022/11/03 00:28:37;;;;;;;17.70;11.30;;;11.50;99.90;;;;;;10420628;28;20237;-81
2022/11/03 00:33:41;;;;;;;10.70;5.90;;;11.50;99.90;;;;;;10422802;28;20260;-81
2022/11/03 00:38:44;;;;;;;7.80;6.97;;;11.50;99.90;;;;;;10434579;28;20285;-82
2022/11/03 00:43:47;;;;;;;9.17;7.73;;;11.50;99.90;;;;;;10434595;28;20224;-80
2022/11/03 00:48:51;;;;;;;8.50;7.00;;;11.50;99.90;;;;;;10434797;28;20272;-82
2022/11/03 00:53:55;;;;;;;7.97;6.77;;;11.50;99.90;;;;;;10423924;28;20216;-82
2022/11/03 00:58:59;;;;;;;7.90;7.10;;;11.50;99.90;;;;;;10425396;28;20659;-81
2022/11/03 01:09:38;;;;;;;9.50;6.87;;;11.40;99.90;;;;;;10385803;28;20201;-80
2022/11/03 01:14:42;;;;;;;11.70;7.43;;;11.40;99.90;;;;;;10515240;22;20609;-83
2022/11/03 01:19:46;;;;;;;9.37;7.40;;;11.40;99.90;;;;;;10534555;28;20203;-82
2022/11/03 01:24:50;;;;;;;9.40;7.07;;;11.30;99.90;;;;;;10564153;28;20595;-80
2022/11/03 01:29:52;;;;;;;8.00;7.30;;;11.30;99.90;;;;;;10544307;28;20274;-81
2022/11/03 01:34:56;;;;;;;13.50;9.70;;;11.30;99.90;;;;;;10536741;28;20212;-80
2022/11/03 01:39:58;;;;;;;15.83;8.17;;;11.30;99.90;;;;;;10529571;28;20246;-81
2022/11/03 01:45:00;;;;;;;10.73;7.23;;;11.20;99.90;;;;;;10542493;28;20220;-81
2022/11/03 01:50:07;;;;;;;8.90;6.67;;;11.20;99.90;;;;;;10544103;28;20191;-80
2022/11/03 01:55:13;;;;;;;21.80;12.03;;;11.10;99.90;;;;;;10528374;28;20213;-83
2022/11/03 02:00:15;;;;;;;8.87;8.00;;;11.10;99.90;;;;;;10528335;28;20199;-84
2022/11/03 02:05:24;;;;;;;8.10;6.80;;;11.00;99.90;;;;;;10539091;28;20246;-82
2022/11/03 02:10:26;;;;;;;9.20;7.00;;;11.00;99.90;;;;;;10542736;28;20200;-83
2022/11/03 02:15:29;;;;;;;13.30;8.00;;;10.90;99.90;;;;;;10545754;28;20671;-84
2022/11/03 02:20:33;;;;;;;10.30;8.23;;;10.90;99.90;;;;;;10521807;28;20322;-81
2022/11/03 02:25:45;;;;;;;10.67;8.17;;;10.90;99.90;;;;;;10538368;28;20238;-83
2022/11/03 02:30:55;;;;;;;12.23;8.03;;;10.90;99.90;;;;;;10530830;28;20725;-83
2022/11/03 02:36:05;;;;;;;9.90;8.20;;;10.90;99.90;;;;;;10518995;28;20677;-80
2022/11/03 02:41:09;;;;;;;7.53;6.70;;;10.80;99.90;;;;;;10481471;28;20197;-81
2022/11/03 02:46:14;;;;;;;10.30;7.50;;;10.80;99.90;;;;;;10479968;28;20224;-83
2022/11/03 02:51:16;;;;;;;8.43;7.63;;;10.70;99.90;;;;;;10513092;28;20211;-82
2022/11/03 02:56:23;;;;;;;10.13;8.30;;;10.60;99.90;;;;;;10526164;28;20208;-81
2022/11/03 03:01:31;;;;;;;8.33;7.53;;;10.60;99.90;;;;;;10524382;28;20199;-80
2022/11/03 03:06:36;;;;;;;10.67;8.27;;;10.60;99.90;;;;;;10527542;28;20212;-81
2022/11/03 03:11:43;;;;;;;9.80;7.57;;;10.50;99.90;;;;;;10522262;28;20196;-82
2022/11/03 03:16:55;;;;;;;8.40;7.53;;;10.50;99.90;;;;;;10478718;28;20217;-84
2022/11/03 03:22:02;;;;;;;10.00;7.60;;;10.50;99.90;;;;;;10534001;28;20211;-82
2022/11/03 03:27:09;;;;;;;9.23;7.80;;;10.40;99.90;;;;;;10521017;28;20212;-82
2022/11/03 03:32:14;;;;;;;8.33;7.27;;;10.40;99.90;;;;;;10521562;28;20199;-81
2022/11/03 03:37:17;;;;;;;9.83;7.73;;;10.40;99.90;;;;;;10495453;28;20649;-82
2022/11/03 03:42:24;;;;;;;8.57;7.67;;;10.40;99.90;;;;;;10530379;28;20188;-84
2022/11/03 03:47:29;;;;;;;16.13;11.60;;;10.50;99.90;;;;;;10537961;28;20227;-85
2022/11/03 03:52:34;;;;;;;9.90;8.50;;;10.50;99.90;;;;;;10523367;28;20265;-80
2022/11/03 03:57:38;;;;;;;11.50;10.40;;;10.50;99.90;;;;;;10521077;28;20257;-81
2022/11/03 04:02:40;;;;;;;8.10;7.30;;;10.50;99.90;;;;;;10501772;28;20223;-82
2022/11/03 04:07:48;;;;;;;10.37;8.47;;;10.60;99.90;;;;;;10519533;28;20304;-82
2022/11/03 04:23:30;;;;;;;10.73;7.73;;;10.60;99.90;;;;;;10514809;28;20720;-82
2022/11/03 04:28:34;;;;;;;9.70;7.67;;;10.60;99.90;;;;;;10494708;28;20227;-82
2022/11/03 04:33:36;;;;;;;8.83;8.03;;;10.60;99.90;;;;;;10511238;28;20252;-82
2022/11/03 04:38:38;;;;;;;9.13;8.07;;;10.60;99.90;;;;;;10477354;28;20194;-82
2022/11/03 04:43:42;;;;;;;10.47;8.40;;;10.60;99.90;;;;;;10510318;28;20244;-82
2022/11/03 04:48:46;;;;;;;12.37;10.67;;;10.60;99.90;;;;;;10513189;28;20646;-82
2022/11/03 04:53:50;;;;;;;25.00;16.90;;;10.60;99.90;;;;;;10511504;28;20231;-82
2022/11/03 04:58:54;;;;;;;15.60;12.53;;;10.50;99.90;;;;;;10485319;28;20212;-82
2022/11/03 05:03:56;;;;;;;20.90;18.63;;;10.50;99.90;;;;;;10486655;28;20263;-83
2022/11/03 05:09:02;;;;;;;22.43;17.80;;;10.60;99.90;;;;;;10494603;28;20276;-84
2022/11/03 05:14:15;;;;;;;20.30;16.00;;;10.60;99.90;;;;;;10478987;28;20255;-82
2022/11/03 05:19:21;;;;;;;12.13;10.93;;;10.60;99.90;;;;;;10498164;28;20274;-82
2022/11/03 05:24:25;;;;;;;15.10;11.20;;;10.60;99.90;;;;;;10505724;28;20304;-82
2022/11/03 05:29:32;;;;;;;11.53;9.73;;;10.60;99.90;;;;;;10504273;28;20253;-84
2022/11/03 05:34:40;;;;;;;10.20;9.10;;;10.60;99.90;;;;;;10542935;28;20208;-82
2022/11/03 05:39:46;;;;;;;9.30;8.40;;;10.60;99.90;;;;;;10504230;28;20208;-82
2022/11/03 05:44:51;;;;;;;11.50;9.47;;;10.60;99.90;;;;;;10518840;28;20304;-83
2022/11/03 05:50:01;;;;;;;9.60;7.63;;;10.50;99.90;;;;;;10515731;28;20197;-84
2022/11/03 05:55:04;;;;;;;9.80;8.70;;;10.50;99.90;;;;;;10488410;28;20237;-81
2022/11/03 06:00:25;;;;;;;10.73;9.73;;;10.40;99.90;;;;;;10512666;28;20200;-80
2022/11/03 06:05:27;;;;;;;9.87;8.93;;;10.40;99.90;;;;;;10498342;28;20232;-81
2022/11/03 06:10:33;;;;;;;10.43;9.20;;;10.30;99.90;;;;;;10498484;28;20204;-82
2022/11/03 06:15:37;;;;;;;9.43;8.63;;;10.30;99.90;;;;;;10499053;28;20693;-82
2022/11/03 06:20:39;;;;;;;8.40;7.70;;;10.30;99.90;;;;;;10491604;28;20205;-82
2022/11/03 06:25:42;;;;;;;10.07;9.23;;;10.20;99.90;;;;;;10494727;28;20209;-82
2022/11/03 06:30:46;;;;;;;10.10;9.20;;;10.20;99.90;;;;;;10498531;28;20221;-81
2022/11/03 06:35:51;;;;;;;9.67;8.73;;;10.20;99.90;;;;;;10530029;28;20237;-81
2022/11/03 06:40:54;;;;;;;10.63;9.63;;;10.20;99.90;;;;;;10490411;28;20193;-81
2022/11/03 06:45:59;;;;;;;10.73;9.30;;;10.30;99.90;;;;;;10494464;28;20233;-84
2022/11/03 06:51:02;;;;;;;10.73;9.20;;;10.30;99.90;;;;;;10494136;28;20200;-83
2022/11/03 06:56:12;;;;;;;10.60;9.70;;;10.40;99.90;;;;;;10494774;28;20242;-81
2022/11/03 07:01:21;;;;;;;11.30;10.37;;;10.40;99.90;;;;;;10480468;28;20625;-82
2022/11/03 07:06:29;;;;;;;11.10;9.90;;;10.50;99.90;;;;;;10486992;28;20229;-82
2022/11/03 07:11:35;;;;;;;12.37;11.37;;;10.60;99.90;;;;;;10491450;28;20208;-82
2022/11/03 07:16:45;;;;;;;11.40;10.50;;;10.60;99.90;;;;;;10487676;28;20225;-81
2022/11/03 07:21:50;;;;;;;11.23;10.10;;;10.70;99.90;;;;;;10489265;28;20198;-82
2022/11/03 07:26:59;;;;;;;14.80;11.20;;;10.70;99.90;;;;;;10490497;28;20304;-83
2022/11/03 07:32:11;;;;;;;11.77;10.57;;;10.80;99.90;;;;;;10483025;28;20192;-81
2022/11/03 07:37:18;;;;;;;11.00;10.10;;;10.90;99.90;;;;;;10534115;28;20578;-81
2022/11/03 07:42:22;;;;;;;11.90;10.63;;;11.00;99.90;;;;;;10459290;28;20652;-81
2022/11/03 07:47:28;;;;;;;16.03;10.80;;;11.10;99.90;;;;;;10477719;28;20217;-81
2022/11/03 07:52:30;;;;;;;15.70;11.20;;;11.20;99.90;;;;;;10481710;28;20227;-83
2022/11/03 07:57:34;;;;;;;13.17;11.30;;;11.30;99.90;;;;;;10482319;28;20196;-85
2022/11/03 08:02:44;;;;;;;13.07;11.60;;;11.50;99.90;;;;;;10484889;28;20284;-83
2022/11/03 08:07:46;;;;;;;12.67;10.57;;;11.60;99.90;;;;;;10485447;28;20589;-84
2022/11/03 08:12:49;;;;;;;12.17;11.07;;;11.70;99.90;;;;;;10483807;28;20213;-84
2022/11/03 08:17:52;;;;;;;12.50;10.50;;;11.90;99.90;;;;;;10483049;28;20220;-84
2022/11/03 08:22:54;;;;;;;11.47;10.27;;;12.00;99.90;;;;;;10484762;28;20276;-83
2022/11/03 08:27:56;;;;;;;13.83;10.57;;;12.10;99.90;;;;;;10482097;28;20220;-85
2022/11/03 08:33:00;;;;;;;13.37;10.57;;;12.20;99.90;;;;;;10486143;28;20209;-82
2022/11/03 08:38:02;;;;;;;12.50;11.20;;;12.20;99.90;;;;;;10479274;28;20189;-85
2022/11/03 08:43:05;;;;;;;14.70;11.30;;;12.40;99.90;;;;;;10480926;28;20235;-84
2022/11/03 08:48:08;;;;;;;12.80;10.03;;;12.50;99.90;;;;;;10507141;28;20212;-84
2022/11/03 08:53:11;;;;;;;12.17;10.97;;;12.60;99.90;;;;;;10480629;28;20236;-84
2022/11/03 08:58:13;;;;;;;12.60;11.30;;;12.70;99.90;;;;;;10504655;28;20194;-85
2022/11/03 09:03:16;;;;;;;11.20;10.10;;;12.80;99.90;;;;;;10500211;28;20254;-84
2022/11/03 09:08:18;;;;;;;11.93;10.83;;;12.90;99.90;;;;;;10493485;28;20239;-83
2022/11/03 09:13:20;;;;;;;11.23;10.03;;;13.10;99.90;;;;;;10472465;28;20714;-83
2022/11/03 09:18:24;;;;;;;10.80;9.87;;;13.20;99.90;;;;;;10475783;28;20221;-84
2022/11/03 09:23:28;;;;;;;10.13;9.27;;;13.20;99.90;;;;;;10504320;28;20262;-82
2022/11/03 09:28:30;;;;;;;10.30;9.30;;;13.30;99.90;;;;;;10513840;28;20629;-84
2022/11/03 09:33:33;;;;;;;10.10;9.20;;;13.40;99.90;;;;;;10510459;28;20238;-84
2022/11/03 09:38:35;;;;;;;10.00;8.93;;;13.50;99.90;;;;;;10535738;28;20210;-83
2022/11/03 09:43:38;;;;;;;8.63;7.93;;;13.60;99.90;;;;;;10532328;28;20247;-81
2022/11/03 09:48:41;;;;;;;8.60;7.80;;;13.70;99.90;;;;;;10558027;28;20220;-82
2022/11/03 09:53:44;;;;;;;9.73;8.70;;;13.80;99.90;;;;;;10522655;28;20734;-83
2022/11/03 09:58:46;;;;;;;7.77;6.90;;;13.90;99.90;;;;;;10512616;28;20204;-83
2022/11/03 10:03:49;;;;;;;7.40;7.00;;;14.10;99.90;;;;;;10524039;28;20278;-83
2022/11/03 10:08:52;;;;;;;7.17;6.43;;;14.20;99.90;;;;;;10515587;28;20583;-83
2022/11/03 10:13:56;;;;;;;6.77;6.17;;;14.30;99.90;;;;;;10531588;28;20235;-83
2022/11/03 10:19:00;;;;;;;6.17;5.77;;;14.50;99.90;;;;;;10498938;28;20196;-83
2022/11/03 10:24:03;;;;;;;7.60;6.50;;;14.60;99.90;;;;;;10528069;28;20299;-83
2022/11/03 10:29:08;;;;;;;12.83;10.70;;;14.70;99.90;;;;;;10511870;28;20239;-83
2022/11/03 10:34:26;;;;;;;8.60;7.80;;;14.80;99.90;;;;;;10522030;28;20291;-83
2022/11/03 10:39:30;;;;;;;7.57;6.90;;;14.90;99.90;;;;;;10511798;28;20260;-83
2022/11/03 10:44:32;;;;;;;8.53;5.40;;;15.00;99.90;;;;;;10511037;28;20212;-84
2022/11/03 10:49:36;;;;;;;7.33;6.53;;;15.10;99.90;;;;;;10491905;28;20200;-84
2022/11/03 10:54:38;;;;;;;6.83;6.10;;;15.10;99.90;;;;;;10522584;28;20248;-85
2022/11/03 10:59:41;;;;;;;4.77;4.23;;;15.10;99.90;;;;;;10507485;28;20250;-84
2022/11/03 11:04:46;;;;;;;6.70;4.70;;;15.20;99.90;;;;;;10512010;28;20288;-84
2022/11/03 11:09:49;;;;;;;5.17;4.63;;;15.20;99.90;;;;;;10518216;28;20225;-84
2022/11/03 11:14:56;;;;;;;4.97;4.40;;;15.30;99.90;;;;;;10511176;28;20235;-83
2022/11/03 11:20:36;;;;;;;5.87;4.83;;;15.30;99.90;;;;;;10523848;28;20550;-83
2022/11/03 11:26:07;;;;;;;5.70;4.93;;;15.40;99.90;;;;;;10513071;28;20275;-84
2022/11/03 11:31:30;;;;;;;4.47;4.07;;;15.40;99.90;;;;;;10519965;28;20192;-83
2022/11/03 11:36:33;;;;;;;5.70;5.20;;;15.30;99.90;;;;;;10491501;28;20734;-83
2022/11/03 11:42:07;;;;;;;5.53;5.03;;;15.40;99.90;;;;;;10514023;28;20200;-84
2022/11/03 11:47:25;;;;;;;8.10;5.13;;;15.40;99.90;;;;;;10497857;28;20239;-83
2022/11/03 11:52:30;;;;;;;8.17;5.70;;;15.40;99.90;;;;;;10502204;28;20611;-85
2022/11/03 11:57:34;;;;;;;5.43;4.93;;;15.50;99.90;;;;;;10518163;28;20192;-84
2022/11/03 12:02:37;;;;;;;10.73;7.07;;;15.50;99.90;;;;;;10503443;28;20210;-84
2022/11/03 12:07:40;;;;;;;6.67;6.00;;;15.60;99.90;;;;;;10522645;28;20219;-83
2022/11/03 12:12:42;;;;;;;6.57;6.03;;;15.60;99.90;;;;;;10482629;28;20289;-84
2022/11/03 12:17:44;;;;;;;7.57;5.60;;;15.60;99.90;;;;;;10480360;28;20238;-84
2022/11/03 12:22:48;;;;;;;7.17;5.47;;;15.60;99.90;;;;;;10493833;28;20275;-84
2022/11/03 12:27:51;;;;;;;7.10;6.47;;;15.60;99.90;;;;;;10500508;28;20215;-85
2022/11/03 12:32:53;;;;;;;7.13;5.63;;;15.60;99.90;;;;;;10516496;28;20212;-82
2022/11/03 12:37:57;;;;;;;5.10;4.70;;;15.60;99.90;;;;;;10514712;28;20189;-83
2022/11/03 12:42:59;;;;;;;8.50;7.17;;;15.50;99.90;;;;;;10526316;28;20221;-83
2022/11/03 12:48:01;;;;;;;8.47;7.60;;;15.50;99.90;;;;;;10533793;28;20594;-84
2022/11/03 12:53:06;;;;;;;6.43;5.83;;;15.40;99.90;;;;;;10520450;28;20249;-84
2022/11/03 12:58:08;;;;;;;7.00;6.47;;;15.40;99.90;;;;;;10519859;28;20249;-83
2022/11/03 13:03:10;;;;;;;7.13;6.43;;;15.40;99.90;;;;;;10517670;28;20707;-84
2022/11/03 13:08:14;;;;;;;8.17;7.33;;;15.40;99.90;;;;;;10475042;28;20738;-84
2022/11/03 13:13:16;;;;;;;7.57;6.97;;;15.40;99.90;;;;;;10540123;22;20572;-80
2022/11/03 13:18:18;;;;;;;7.27;6.13;;;15.40;99.90;;;;;;10451245;28;20648;-80
2022/11/03 13:23:22;;;;;;;10.10;9.03;;;15.40;99.90;;;;;;10470522;28;20241;-80
2022/11/03 13:28:24;;;;;;;11.63;10.53;;;15.40;99.90;;;;;;10447701;28;20295;-81
2022/11/03 13:33:26;;;;;;;14.33;12.83;;;15.40;99.90;;;;;;10471986;28;20252;-81
2022/11/03 13:38:29;;;;;;;10.23;9.30;;;15.40;99.90;;;;;;10452905;28;20197;-81
2022/11/03 13:43:31;;;;;;;13.47;10.00;;;15.40;99.90;;;;;;10470728;28;20424;-81
2022/11/03 13:48:33;;;;;;;7.97;7.17;;;15.40;99.90;;;;;;10459697;28;20233;-80
2022/11/03 13:53:37;;;;;;;10.97;9.77;;;15.40;99.90;;;;;;10446484;28;20256;-80
2022/11/03 13:58:39;;;;;;;11.60;8.27;;;15.40;99.90;;;;;;10464757;28;20193;-80
2022/11/03 14:03:41;;;;;;;10.40;9.30;;;15.40;99.90;;;;;;10461142;28;20213;-80
2022/11/03 14:08:45;;;;;;;12.97;9.90;;;15.40;99.90;;;;;;10457017;28;20248;-81
2022/11/03 14:13:47;;;;;;;9.20;8.30;;;15.40;99.90;;;;;;10463430;28;20261;-80
2022/11/03 14:18:49;;;;;;;8.50;7.70;;;15.30;99.90;;;;;;10458234;28;20641;-81
2022/11/03 14:23:54;;;;;;;8.57;7.73;;;15.30;99.90;;;;;;10447138;28;20251;-80
2022/11/03 14:28:56;;;;;;;13.07;9.50;;;15.20;99.90;;;;;;10456296;28;20583;-80
2022/11/03 14:33:58;;;;;;;9.40;8.50;;;15.20;99.90;;;;;;10457641;28;20233;-81
2022/11/03 14:39:02;;;;;;;9.93;8.90;;;15.10;99.90;;;;;;10440221;28;20569;-80
2022/11/03 14:44:05;;;;;;;8.10;6.77;;;15.20;99.90;;;;;;10438194;28;20221;-80
2022/11/03 14:49:07;;;;;;;8.23;7.00;;;15.10;99.90;;;;;;10439433;28;20213;-80
2022/11/03 14:54:11;;;;;;;10.70;9.70;;;15.10;99.90;;;;;;10434114;28;20220;-80
2022/11/03 14:59:13;;;;;;;12.73;9.73;;;15.00;99.90;;;;;;10449633;28;20622;-80
2022/11/03 15:04:15;;;;;;;11.60;10.47;;;15.00;99.90;;;;;;10432858;28;20215;-80
2022/11/03 15:09:19;;;;;;;9.60;8.70;;;15.00;99.90;;;;;;10421495;28;20221;-80
2022/11/03 15:14:21;;;;;;;18.00;11.20;;;14.90;99.90;;;;;;10438239;28;20233;-81
2022/11/03 15:19:23;;;;;;;13.37;10.33;;;14.90;99.90;;;;;;10455086;28;20280;-81
2022/11/03 15:24:26;;;;;;;12.97;10.07;;;14.90;99.90;;;;;;10447536;28;20224;-80
2022/11/03 15:29:28;;;;;;;13.37;9.70;;;14.80;99.90;;;;;;10456284;28;20227;-81
2022/11/03 15:34:30;;;;;;;11.37;9.40;;;14.80;99.90;;;;;;10430797;28;20223;-81
2022/11/03 15:39:34;;;;;;;11.00;10.00;;;14.80;99.90;;;;;;10442914;28;20243;-80
2022/11/03 15:44:36;;;;;;;12.07;10.87;;;14.80;99.90;;;;;;10459319;28;20658;-80
2022/11/03 15:49:38;;;;;;;11.70;10.70;;;14.70;99.90;;;;;;10453930;28;20240;-80
2022/11/03 15:54:41;;;;;;;10.73;9.77;;;14.70;99.90;;;;;;10438704;28;20341;-80
2022/11/03 15:59:44;;;;;;;10.17;9.40;;;14.70;99.90;;;;;;10443945;28;20594;-81
2022/11/03 16:04:46;;;;;;;11.17;10.17;;;14.70;99.90;;;;;;10443736;28;20232;-80
2022/11/03 16:09:49;;;;;;;11.97;10.77;;;14.60;99.90;;;;;;10446209;28;20638;-80
2022/11/03 16:14:51;;;;;;;14.20;11.00;;;14.60;99.90;;;;;;10446287;28;20252;-81
2022/11/03 16:19:53;;;;;;;10.40;9.50;;;14.60;99.90;;;;;;10443805;28;20276;-81
2022/11/03 16:24:57;;;;;;;9.60;8.70;;;14.60;99.90;;;;;;10464265;28;20263;-81
2022/11/03 16:29:59;;;;;;;9.50;8.70;;;14.60;99.90;;;;;;10445545;28;20756;-81
2022/11/03 16:35:01;;;;;;;9.60;8.67;;;14.60;99.90;;;;;;10434822;28;20209;-81
2022/11/03 16:40:05;;;;;;;7.73;7.00;;;14.60;99.90;;;;;;10465598;28;20193;-82
2022/11/03 16:45:27;;;;;;;9.43;8.73;;;14.60;99.90;;;;;;10463224;28;20696;-80
2022/11/03 16:50:30;;;;;;;8.47;7.67;;;14.60;99.90;;;;;;10459983;28;20197;-80
2022/11/03 16:55:34;;;;;;;9.30;8.50;;;14.60;99.90;;;;;;10440963;28;20209;-80
2022/11/03 17:00:36;;;;;;;8.90;8.03;;;14.60;99.90;;;;;;10410057;28;20236;-80
2022/11/03 17:05:38;;;;;;;8.23;7.43;;;14.70;99.90;;;;;;10424094;28;20595;-80
2022/11/03 17:10:41;;;;;;;9.73;8.90;;;14.70;99.90;;;;;;10437125;28;20200;-79
2022/11/03 17:15:43;;;;;;;8.33;7.73;;;14.70;99.90;;;;;;10442402;28;20300;-80
2022/11/03 17:20:45;;;;;;;29.23;26.67;;;14.70;99.90;;;;;;10442077;28;20215;-79
2022/11/03 17:25:49;;;;;;;8.37;7.57;;;14.70;99.90;;;;;;10421186;28;20210;-79
2022/11/03 17:30:51;;;;;;;9.07;8.37;;;14.70;99.90;;;;;;10463237;28;20257;-79
2022/11/03 17:35:53;;;;;;;30.23;27.33;;;14.80;99.90;;;;;;10466161;28;20217;-79
2022/11/03 17:40:56;;;;;;;10.80;9.90;;;14.80;99.90;;;;;;10451292;28;20259;-81
2022/11/03 17:45:58;;;;;;;10.07;8.23;;;14.80;99.90;;;;;;10471082;28;20677;-79
2022/11/03 17:51:03;;;;;;;8.13;7.43;;;14.80;99.90;;;;;;10472107;28;20201;-79
2022/11/03 17:56:14;;;;;;;8.63;7.93;;;14.80;99.90;;;;;;10457158;28;20688;-83
2022/11/03 18:01:21;;;;;;;9.43;8.73;;;14.80;99.90;;;;;;10460159;28;20209;-81
2022/11/03 18:06:24;;;;;;;9.03;8.43;;;14.80;99.90;;;;;;10438785;28;20700;-80
2022/11/03 18:16:50;;;;;;;7.73;7.20;;;14.80;99.90;;;;;;10430419;28;20316;-82
2022/11/03 18:21:52;;;;;;;8.13;7.53;;;14.80;99.90;;;;;;10462473;28;20219;-81
2022/11/03 18:26:56;;;;;;;9.20;8.50;;;14.80;99.90;;;;;;10434027;28;20221;-81
2022/11/03 18:31:59;;;;;;;9.13;8.23;;;14.80;99.90;;;;;;10429724;28;20185;-82
2022/11/03 18:37:02;;;;;;;11.77;8.37;;;14.80;99.90;;;;;;10440273;28;20217;-82
2022/11/03 18:42:12;;;;;;;8.90;8.20;;;14.70;99.90;;;;;;10440743;28;20255;-82
2022/11/03 18:47:14;;;;;;;8.87;8.07;;;14.70;99.90;;;;;;10428776;28;20232;-82
2022/11/03 18:52:17;;;;;;;8.50;7.80;;;14.70;99.90;;;;;;10443800;28;20288;-83
2022/11/03 18:57:24;;;;;;;9.37;8.47;;;14.70;99.90;;;;;;10463676;28;20214;-82
2022/11/03 19:02:27;;;;;;;7.80;7.10;;;14.70;99.90;;;;;;10450443;28;20193;-81
2022/11/03 19:07:30;;;;;;;10.20;9.23;;;14.80;99.90;;;;;;10465177;28;20229;-83
2022/11/03 19:12:34;;;;;;;7.93;7.23;;;14.70;99.90;;;;;;10449757;28;20194;-82
2022/11/03 19:17:36;;;;;;;10.20;9.30;;;14.70;99.90;;;;;;10422655;28;20673;-81
2022/11/03 19:22:38;;;;;;;10.40;9.53;;;14.70;99.90;;;;;;10453998;28;20669;-84
2022/11/03 19:27:44;;;;;;;9.80;8.90;;;14.70;99.90;;;;;;10448151;28;20220;-82
2022/11/03 19:32:51;;;;;;;9.50;8.70;;;14.70;99.90;;;;;;10463501;28;20228;-81
2022/11/03 19:38:01;;;;;;;13.50;12.30;;;14.60;99.90;;;;;;10468043;28;20741;-82
2022/11/03 19:43:08;;;;;;;11.27;10.00;;;14.60;99.90;;;;;;10465161;28;20275;-82
2022/11/03 19:48:10;;;;;;;11.17;10.40;;;14.60;99.90;;;;;;10437984;28;20300;-83
2022/11/03 19:53:20;;;;;;;9.47;8.67;;;14.60;99.90;;;;;;10457247;28;20209;-83
2022/11/03 19:58:25;;;;;;;10.70;9.63;;;14.50;99.90;;;;;;10458062;28;20201;-82
2022/11/03 20:03:27;;;;;;;9.50;8.47;;;14.30;99.90;;;;;;10457979;28;20217;-82
2022/11/03 20:08:33;;;;;;;9.07;8.37;;;14.20;99.90;;;;;;10467904;28;20235;-82
2022/11/03 20:13:41;;;;;;;9.80;8.90;;;14.10;99.90;;;;;;10449221;28;20225;-82
2022/11/03 20:18:43;;;;;;;9.70;8.90;;;14.00;99.90;;;;;;10445207;28;20197;-82
2022/11/03 20:23:47;;;;;;;15.80;14.43;;;13.90;99.90;;;;;;10443663;28;20231;-82
2022/11/03 20:28:54;;;;;;;10.63;9.83;;;13.80;99.90;;;;;;10461555;28;20676;-82
2022/11/03 20:33:56;;;;;;;12.67;11.57;;;13.70;99.90;;;;;;10417324;28;20221;-81
2022/11/03 20:38:58;;;;;;;13.57;12.47;;;13.70;99.90;;;;;;10462295;28;20194;-82
2022/11/03 20:44:02;;;;;;;17.53;16.03;;;13.70;99.90;;;;;;10464386;28;20251;-81
2022/11/03 20:49:04;;;;;;;12.87;11.67;;;13.70;99.90;;;;;;10433075;28;20579;-83
2022/11/03 20:54:16;;;;;;;10.80;9.80;;;13.70;99.90;;;;;;10437817;28;20225;-82
2022/11/03 20:59:21;;;;;;;12.77;11.60;;;13.70;99.90;;;;;;10439797;28;20284;-83
2022/11/03 21:04:25;;;;;;;11.93;11.03;;;13.70;99.90;;;;;;10450773;28;20217;-82
2022/11/03 21:09:27;;;;;;;10.13;9.33;;;13.80;99.90;;;;;;10452848;28;20223;-82
2022/11/03 21:14:31;;;;;;;10.00;9.30;;;13.80;99.90;;;;;;10452734;28;20236;-81
2022/11/03 21:24:53;;;;;;;11.00;10.00;;;13.80;99.90;;;;;;10819281;22;20802;-82
2022/11/03 21:29:57;;;;;;;12.00;11.00;;;13.70;99.90;;;;;;10533008;28;20224;-80
2022/11/03 21:35:00;;;;;;;16.33;14.80;;;13.60;99.90;;;;;;10523753;28;20253;-81
2022/11/03 21:40:02;;;;;;;14.60;13.23;;;13.60;99.90;;;;;;10530077;28;20192;-82
2022/11/03 21:45:07;;;;;;;14.67;13.40;;;13.50;99.90;;;;;;10540688;28;20268;-80
2022/11/03 21:50:09;;;;;;;14.53;13.47;;;13.50;99.90;;;;;;10545108;28;20215;-82
2022/11/03 21:55:11;;;;;;;15.77;14.63;;;13.50;99.90;;;;;;10545751;28;20222;-81
2022/11/03 22:00:16;;;;;;;16.20;14.97;;;13.50;99.90;;;;;;10527711;28;20184;-81
2022/11/03 22:05:19;;;;;;;19.77;18.13;;;13.40;99.90;;;;;;10544252;28;20207;-83
2022/11/03 22:10:21;;;;;;;19.60;18.00;;;13.40;99.90;;;;;;10543491;28;20210;-81
2022/11/03 22:31:40;;;;;;;19.07;17.77;;;13.30;99.90;;;;;;10535411;28;20252;-82
2022/11/03 22:36:42;;;;;;;18.10;16.80;;;13.20;99.90;;;;;;10555957;28;20220;-81
2022/11/03 22:47:06;;;;;;;14.50;13.60;;;13.20;99.90;;;;;;10543052;28;20211;-81
2022/11/03 22:52:10;;;;;;;14.80;13.90;;;13.10;99.90;;;;;;10541624;28;20230;-81
2022/11/03 22:57:14;;;;;;;17.00;15.90;;;13.00;99.90;;;;;;10544978;28;20722;-82
2022/11/03 23:02:18;;;;;;;16.30;15.30;;;12.90;99.90;;;;;;10554276;28;20192;-81
2022/11/03 23:07:20;;;;;;;14.20;13.27;;;12.90;99.90;;;;;;10524464;28;20598;-80
2022/11/03 23:12:22;;;;;;;13.10;12.10;;;12.90;99.90;;;;;;10524802;28;20191;-80
2022/11/03 23:21:05;;;;;;;13.53;12.80;;;13.00;99.90;;;;;;10544148;28;20212;-79
2022/11/03 23:22:48;;;;;;;14.13;13.13;;;13.00;99.90;;;;;;10525111;28;20222;-81
2022/11/03 23:27:50;;;;;;;13.40;12.60;;;13.00;99.90;;;;;;10543055;28;20214;-81
2022/11/03 23:32:53;;;;;;;12.70;11.90;;;13.00;99.90;;;;;;10540368;28;20192;-81
2022/11/03 23:37:55;;;;;;;12.20;11.50;;;13.10;99.90;;;;;;10542425;28;20192;-81
2022/11/03 23:42:57;;;;;;;11.70;10.80;;;13.10;99.90;;;;;;10542433;28;20235;-81
2022/11/03 23:53:20;;;;;;;8.83;8.27;;;13.10;99.90;;;;;;10548520;28;20211;-81
2022/11/03 23:58:22;;;;;;;8.50;7.90;;;13.10;99.90;;;;;;10548229;28;20180;-81
